Time;durP1;ratioP1;P1;durP2;ratioP2;P2;SDS_P1;SDS_P2;PMS_P1;PMS_P2;Temp;Humidity;BMP_temperature;BMP_pressure;BME280_temperature;BME280_humidity;BME280_pressure;Samples;Min_cycle;Max_cycle;Signal;HPM_P1;HPM_P2
2021/05/16 00:00:00;;;;;;;1.55;0.50;;;;;;;17.51;43.58;100556.56;5080409;28;20036;-65
2021/05/16 00:02:27;;;;;;;4.28;0.70;;;;;;;17.45;43.47;100555.78;5076411;28;20040;-65
2021/05/16 00:04:54;;;;;;;5.30;0.50;;;;;;;17.36;43.75;100562.13;5082531;28;20531;-65
2021/05/16 00:07:21;;;;;;;2.78;0.50;;;;;;;17.46;43.59;100561.06;5087488;28;20433;-66
2021/05/16 00:09:50;;;;;;;1.65;0.40;;;;;;;17.58;43.61;100556.44;5076638;28;20090;-64
2021/05/16 00:12:17;;;;;;;1.05;0.60;;;;;;;17.58;43.12;100557.34;5072599;28;20052;-65
2021/05/16 00:14:45;;;;;;;3.53;0.85;;;;;;;17.37;43.53;100553.22;5076458;28;20131;-65
2021/05/16 00:17:12;;;;;;;2.05;0.63;;;;;;;17.30;44.11;100554.22;5068758;28;20535;-65
2021/05/16 00:19:39;;;;;;;1.13;0.40;;;;;;;17.25;44.33;100540.06;5075911;28;20402;-65
2021/05/16 00:22:07;;;;;;;1.20;0.50;;;;;;;17.32;43.90;100538.19;5084953;28;20052;-69
2021/05/16 00:24:35;;;;;;;1.48;0.70;;;;;;;17.40;43.56;100541.59;5082069;28;20039;-66
2021/05/16 00:27:03;;;;;;;4.32;0.57;;;;;;;17.37;43.92;100539.00;5076801;28;20163;-66
2021/05/16 00:29:30;;;;;;;1.52;0.40;;;;;;;17.07;43.88;100540.31;5073397;28;20036;-65
2021/05/16 00:31:58;;;;;;;3.25;0.70;;;;;;;17.07;44.23;100535.88;5078900;28;20044;-66
2021/05/16 00:34:25;;;;;;;2.13;0.60;;;;;;;17.18;43.71;100533.06;5084337;28;20539;-65
2021/05/16 00:36:52;;;;;;;1.85;0.50;;;;;;;17.25;43.78;100529.41;5080378;28;20056;-66
2021/05/16 00:39:19;;;;;;;3.42;1.02;;;;;;;17.22;43.36;100531.22;5085220;28;20048;-66
2021/05/16 00:41:46;;;;;;;0.90;0.50;;;;;;;17.24;43.88;100535.63;5074922;28;20050;-66
2021/05/16 00:44:17;;;;;;;1.70;0.52;;;;;;;17.23;43.50;100531.19;5084632;28;20425;-66
2021/05/16 00:46:44;;;;;;;3.55;0.50;;;;;;;17.20;43.58;100528.56;5072152;28;20127;-66
2021/05/16 00:49:13;;;;;;;3.00;0.43;;;;;;;17.22;43.95;100520.53;5080551;28;20119;-66
2021/05/16 00:51:40;;;;;;;2.17;0.50;;;;;;;17.14;43.84;100532.22;5085099;28;20047;-65
2021/05/16 00:54:07;;;;;;;2.53;0.63;;;;;;;17.02;44.23;100526.19;5078524;28;20591;-66
2021/05/16 00:56:34;;;;;;;4.35;0.65;;;;;;;17.05;44.29;100523.47;5078883;28;20040;-66
2021/05/16 00:59:01;;;;;;;3.05;0.75;;;;;;;17.11;44.09;100523.38;5078888;28;20044;-65
2021/05/16 01:01:30;;;;;;;2.33;0.75;;;;;;;17.10;43.95;100519.84;5073420;28;20123;-66
2021/05/16 01:03:59;;;;;;;1.00;0.50;;;;;;;17.09;44.22;100514.50;5078231;28;20408;-66
2021/05/16 01:06:26;;;;;;;1.05;0.50;;;;;;;17.07;44.08;100514.53;5080561;28;20093;-66
2021/05/16 01:08:57;;;;;;;1.83;0.47;;;;;;;17.09;43.67;100512.72;5079745;28;20041;-67
2021/05/16 01:11:28;;;;;;;1.13;0.63;;;;;;;17.14;43.64;100524.22;5079006;28;20126;-65
2021/05/16 01:13:56;;;;;;;4.10;0.73;;;;;;;17.11;43.58;100520.72;5072460;28;20400;-66
2021/05/16 01:16:23;;;;;;;3.20;0.60;;;;;;;17.04;43.76;100521.72;5085324;28;20433;-66
2021/05/16 01:18:51;;;;;;;2.40;0.50;;;;;;;16.97;44.20;100528.03;5077663;28;20098;-65
2021/05/16 01:21:21;;;;;;;2.78;0.60;;;;;;;16.96;44.27;100534.28;5072341;28;20109;-65
2021/05/16 01:23:48;;;;;;;1.27;0.40;;;;;;;16.93;44.14;100529.00;5068504;28;20059;-66
2021/05/16 01:26:16;;;;;;;2.25;0.52;;;;;;;16.85;44.71;100537.09;5076562;28;20093;-66
2021/05/16 01:28:44;;;;;;;5.28;0.57;;;;;;;16.83;44.66;100538.88;5077509;28;20551;-65
2021/05/16 01:31:11;;;;;;;2.35;0.63;;;;;;;16.85;44.42;100544.22;5068445;28;20145;-66
2021/05/16 01:33:38;;;;;;;2.15;0.95;;;;;;;16.87;44.55;100547.75;5080819;28;20490;-65
2021/05/16 01:36:06;;;;;;;1.95;0.43;;;;;;;16.86;44.46;100545.97;5068663;28;20047;-65
2021/05/16 01:38:35;;;;;;;1.95;0.65;;;;;;;16.84;44.65;100550.44;5076818;28;20399;-65
2021/05/16 01:41:02;;;;;;;1.95;0.50;;;;;;;16.82;44.56;100542.44;5077330;28;20094;-65
2021/05/16 01:43:35;;;;;;;2.03;0.47;;;;;;;16.86;44.92;100546.88;5085711;28;20028;-65
2021/05/16 01:46:04;;;;;;;3.03;0.70;;;;;;;16.82;44.38;100538.91;5070083;28;20041;-66
2021/05/16 01:48:31;;;;;;;1.67;0.60;;;;;;;16.70;44.49;100548.84;5071780;28;20043;-65
2021/05/16 01:50:58;;;;;;;1.52;0.50;;;;;;;16.48;45.16;100552.63;5073274;28;20131;-66
2021/05/16 01:53:26;;;;;;;1.60;0.43;;;;;;;16.51;45.81;100555.25;5070191;28;20563;-65
2021/05/16 01:55:55;;;;;;;3.72;0.43;;;;;;;16.58;45.61;100559.63;5072772;28;20574;-65
2021/05/16 01:58:23;;;;;;;1.38;0.40;;;;;;;16.60;44.97;100557.88;5069158;28;20114;-66
2021/05/16 02:00:50;;;;;;;4.00;0.50;;;;;;;16.57;45.08;100557.84;5062479;28;20075;-66
2021/05/16 02:03:19;;;;;;;5.00;0.60;;;;;;;16.47;45.71;100572.19;5069146;28;20090;-65
2021/05/16 02:05:49;;;;;;;3.40;0.63;;;;;;;16.31;46.45;100559.94;5069269;28;20116;-65
2021/05/16 02:08:18;;;;;;;2.10;0.52;;;;;;;16.31;46.02;100559.94;5072540;28;20036;-65
2021/05/16 02:10:45;;;;;;;2.05;0.60;;;;;;;16.34;46.19;100563.44;5083606;28;20040;-65
2021/05/16 02:13:14;;;;;;;2.30;0.50;;;;;;;16.39;45.82;100562.53;5077967;28;20040;-65
2021/05/16 02:15:41;;;;;;;1.55;0.50;;;;;;;16.35;45.88;100561.66;5072772;28;20551;-65
2021/05/16 02:18:08;;;;;;;3.92;0.70;;;;;;;16.33;45.90;100552.81;5073252;28;20050;-65
2021/05/16 02:20:35;;;;;;;2.35;0.40;;;;;;;16.34;46.05;100554.59;5073803;28;20098;-65
2021/05/16 02:23:03;;;;;;;3.80;0.60;;;;;;;16.30;45.81;100561.72;5068190;28;20036;-65
2021/05/16 02:25:30;;;;;;;2.30;0.73;;;;;;;16.31;45.58;100565.25;5078831;28;20103;-65
2021/05/16 02:27:57;;;;;;;3.35;0.60;;;;;;;16.25;46.03;100568.88;5070620;28;20066;-65
2021/05/16 02:30:25;;;;;;;2.25;0.50;;;;;;;16.13;46.07;100566.34;5070249;28;20131;-65
2021/05/16 02:32:53;;;;;;;3.35;0.70;;;;;;;16.15;46.53;100568.97;5074709;28;20488;-65
2021/05/16 02:35:21;;;;;;;2.67;0.50;;;;;;;16.18;46.54;100566.28;5072210;28;20036;-66
2021/05/16 02:37:48;;;;;;;1.80;0.52;;;;;;;15.91;46.98;100565.66;5078434;28;20479;-65
2021/05/16 02:40:16;;;;;;;5.80;0.90;;;;;;;15.78;47.70;100569.34;5074210;28;20036;-65
2021/05/16 02:42:43;;;;;;;5.13;0.88;;;;;;;15.77;47.62;100578.22;5066980;28;20044;-65
2021/05/16 02:45:12;;;;;;;3.38;0.57;;;;;;;15.75;47.37;100571.16;5074538;28;20046;-65
2021/05/16 02:47:41;;;;;;;3.90;0.60;;;;;;;15.61;47.79;100584.59;5073472;28;20080;-65
2021/05/16 02:50:09;;;;;;;2.13;0.70;;;;;;;15.58;48.06;100570.41;5080374;28;20200;-65
2021/05/16 02:52:36;;;;;;;3.47;0.70;;;;;;;15.71;47.67;100572.06;5076560;28;20052;-65
2021/05/16 02:55:04;;;;;;;3.65;1.05;;;;;;;15.72;47.31;100579.16;5077542;28;20155;-66
2021/05/16 02:57:32;;;;;;;2.75;0.80;;;;;;;15.69;47.77;100576.50;5076654;28;20513;-64
2021/05/16 02:59:59;;;;;;;4.22;0.75;;;;;;;15.71;47.65;100580.06;5070711;28;20132;-65
2021/05/16 03:02:26;;;;;;;2.55;0.57;;;;;;;15.63;47.84;100580.09;5084166;28;20087;-65
2021/05/16 03:04:54;;;;;;;3.08;0.80;;;;;;;15.63;47.94;100587.19;5084977;28;20119;-65
2021/05/16 03:07:22;;;;;;;2.75;0.50;;;;;;;15.60;47.96;100582.81;5078403;28;20032;-65
2021/05/16 03:09:49;;;;;;;5.15;0.85;;;;;;;15.58;47.98;100579.25;5069799;28;20254;-65
2021/05/16 03:12:16;;;;;;;2.78;0.70;;;;;;;15.67;48.06;100589.84;5078851;28;20140;-65
2021/05/16 03:14:43;;;;;;;4.47;0.70;;;;;;;15.74;48.04;100596.00;5083674;28;20115;-65
2021/05/16 03:17:10;;;;;;;1.38;0.40;;;;;;;15.80;47.49;100590.63;5085571;28;20405;-65
2021/05/16 03:19:37;;;;;;;2.63;0.60;;;;;;;15.77;47.55;100586.19;5074541;28;20039;-66
2021/05/16 03:22:05;;;;;;;2.67;0.73;;;;;;;15.82;47.98;100599.47;5080085;28;20041;-65
2021/05/16 03:24:32;;;;;;;2.25;0.85;;;;;;;15.72;48.31;100597.78;5074408;28;20131;-65
2021/05/16 03:26:59;;;;;;;2.08;0.73;;;;;;;15.48;49.13;100598.84;5084655;28;20458;-66
2021/05/16 03:29:26;;;;;;;2.20;0.52;;;;;;;15.58;48.83;100592.56;5085212;28;20036;-65
2021/05/16 03:31:53;;;;;;;1.05;0.43;;;;;;;15.56;48.91;100593.50;5070985;28;20051;-65
2021/05/16 03:34:20;;;;;;;1.80;0.73;;;;;;;15.44;49.48;100586.44;5077507;28;20089;-66
2021/05/16 03:36:48;;;;;;;5.72;1.00;;;;;;;15.48;49.56;100586.41;5085217;28;20044;-65
2021/05/16 03:39:16;;;;;;;1.45;0.65;;;;;;;15.62;49.65;100588.97;5073177;28;20029;-65
2021/05/16 03:41:43;;;;;;;3.80;0.80;;;;;;;15.65;49.60;100590.75;5076897;28;20071;-65
2021/05/16 03:44:11;;;;;;;5.82;0.70;;;;;;;15.65;49.73;100594.28;5085760;28;20044;-65
2021/05/16 03:46:38;;;;;;;4.03;0.63;;;;;;;15.72;50.22;100585.38;5071905;28;20555;-66
2021/05/16 03:49:05;;;;;;;3.85;0.70;;;;;;;15.87;49.84;100582.59;5073889;28;20037;-65
2021/05/16 03:51:32;;;;;;;2.90;0.88;;;;;;;16.00;49.91;100586.00;5073008;28;20040;-65
2021/05/16 03:54:00;;;;;;;4.45;0.90;;;;;;;16.15;49.96;100583.19;5068605;28;20488;-65
2021/05/16 03:56:28;;;;;;;2.80;0.73;;;;;;;16.27;49.98;100588.41;5076415;28;20040;-65
2021/05/16 03:58:56;;;;;;;2.80;1.00;;;;;;;16.26;49.80;100589.31;5083340;28;20390;-65
2021/05/16 04:01:23;;;;;;;4.47;0.65;;;;;;;16.28;49.95;100584.81;5075251;28;20040;-65
2021/05/16 04:03:50;;;;;;;2.60;0.57;;;;;;;16.34;50.06;100583.91;5071872;28;20132;-65
2021/05/16 04:06:17;;;;;;;3.67;0.90;;;;;;;16.48;50.47;100578.38;5067678;28;20039;-66
2021/05/16 04:08:44;;;;;;;3.30;0.90;;;;;;;16.65;50.18;100576.47;5084827;28;20036;-65
2021/05/16 04:11:11;;;;;;;1.35;0.80;;;;;;;16.90;50.13;100579.69;5071459;28;20036;-66
2021/05/16 04:13:40;;;;;;;2.58;1.00;;;;;;;17.27;49.96;100572.91;5077377;28;20052;-65
2021/05/16 04:16:07;;;;;;;7.15;2.17;;;;;;;17.56;50.08;100575.16;5078940;28;20499;-65
2021/05/16 04:18:34;;;;;;;3.45;1.10;;;;;;;17.79;50.20;100577.47;5074032;28;20044;-66
2021/05/16 04:21:03;;;;;;;3.67;1.42;;;;;;;18.08;49.87;100564.50;5068745;28;20064;-66
2021/05/16 04:23:30;;;;;;;2.25;0.90;;;;;;;18.38;49.63;100568.38;5086546;28;20055;-66
2021/05/16 04:25:57;;;;;;;2.63;1.10;;;;;;;18.63;49.49;100567.03;5076455;28;20086;-65
2021/05/16 04:28:24;;;;;;;5.00;0.98;;;;;;;18.84;49.49;100560.31;5070161;28;20064;-66
2021/05/16 04:30:53;;;;;;;3.22;0.70;;;;;;;19.10;49.33;100554.38;5078964;28;20046;-66
2021/05/16 04:33:20;;;;;;;2.60;1.10;;;;;;;19.16;49.47;100554.28;5079460;28;20032;-66
2021/05/16 04:35:47;;;;;;;1.70;0.65;;;;;;;19.10;49.75;100552.59;5084529;28;20062;-66
2021/05/16 04:38:14;;;;;;;7.10;1.17;;;;;;;19.24;49.89;100554.97;5078325;28;20484;-66
2021/05/16 04:40:42;;;;;;;4.40;0.80;;;;;;;19.57;49.64;100547.94;5071490;28;20495;-65
2021/05/16 04:43:09;;;;;;;4.20;1.00;;;;;;;20.00;49.03;100553.13;5071499;28;20036;-66
2021/05/16 04:45:36;;;;;;;7.82;0.98;;;;;;;20.39;48.55;100548.50;5072598;28;20060;-65
2021/05/16 04:48:05;;;;;;;2.30;0.63;;;;;;;20.81;47.91;100546.34;5070334;28;20120;-66
2021/05/16 04:50:35;;;;;;;4.82;1.25;;;;;;;21.15;47.67;100539.97;5068533;28;20049;-66
2021/05/16 04:53:02;;;;;;;3.83;0.90;;;;;;;21.38;47.48;100541.03;5068973;28;20119;-67
2021/05/16 04:55:29;;;;;;;6.82;0.63;;;;;;;21.75;47.61;100542.50;5073984;28;20041;-66
2021/05/16 04:57:57;;;;;;;6.07;1.05;;;;;;;22.09;47.58;100542.25;5070576;28;20412;-66
2021/05/16 05:00:24;;;;;;;3.83;0.50;;;;;;;22.45;46.97;100550.81;5068022;28;20132;-66
2021/05/16 05:02:51;;;;;;;3.25;0.60;;;;;;;22.76;46.72;100562.22;5068070;28;20052;-66
2021/05/16 05:05:19;;;;;;;7.35;0.88;;;;;;;23.10;46.58;100555.56;5069675;28;20056;-66
2021/05/16 05:07:47;;;;;;;3.25;0.73;;;;;;;23.30;46.17;100551.09;5075052;28;20056;-66
2021/05/16 05:10:14;;;;;;;3.65;0.88;;;;;;;23.53;45.83;100552.91;5069867;28;20394;-66
2021/05/16 05:12:42;;;;;;;2.20;0.80;;;;;;;23.79;45.64;100555.41;5078477;28;20048;-66
2021/05/16 05:15:09;;;;;;;5.60;1.02;;;;;;;24.11;45.53;100548.63;5070355;28;20028;-66
2021/05/16 05:17:40;;;;;;;6.57;1.30;;;;;;;24.53;44.80;100562.09;5080359;28;20047;-66
2021/05/16 05:20:09;;;;;;;3.80;0.80;;;;;;;24.92;44.43;100566.63;5069677;28;20708;-66
2021/05/16 05:22:38;;;;;;;6.78;1.00;;;;;;;25.21;44.03;100568.81;5067709;28;20052;-66
2021/05/16 05:25:06;;;;;;;4.43;0.98;;;;;;;25.43;43.44;100571.38;5066428;28;20099;-66
2021/05/16 05:27:34;;;;;;;4.78;0.93;;;;;;;25.75;42.23;100575.22;5073381;28;20051;-65
2021/05/16 05:30:01;;;;;;;4.57;0.65;;;;;;;25.88;41.14;100587.16;5066256;28;20171;-66
2021/05/16 05:32:28;;;;;;;3.33;0.88;;;;;;;25.86;39.79;100588.22;5080325;28;20039;-66
2021/05/16 05:34:55;;;;;;;6.45;0.90;;;;;;;25.97;39.08;100588.53;5082240;28;20032;-66
2021/05/16 05:37:22;;;;;;;3.40;0.60;;;;;;;26.19;38.40;100587.34;5073294;28;20074;-65
2021/05/16 05:39:51;;;;;;;7.40;0.93;;;;;;;26.67;38.24;100595.72;5075920;28;20047;-66
2021/05/16 05:42:18;;;;;;;3.92;0.68;;;;;;;26.86;37.09;100591.06;5078404;28;20135;-66
2021/05/16 05:44:46;;;;;;;5.10;0.77;;;;;;;27.00;36.99;100593.03;5076918;28;20096;-66
2021/05/16 05:47:12;;;;;;;4.78;0.80;;;;;;;27.09;37.05;100589.84;5066760;28;20132;-66
2021/05/16 05:49:39;;;;;;;4.38;0.82;;;;;;;27.24;36.96;100587.13;5081293;28;20131;-65
2021/05/16 05:52:07;;;;;;;2.25;0.50;;;;;;;27.52;36.03;100588.31;5077366;28;20079;-66
2021/05/16 05:54:35;;;;;;;5.72;0.70;;;;;;;27.70;36.41;100590.84;5078642;28;20040;-67
2021/05/16 05:57:04;;;;;;;3.08;1.35;;;;;;;27.96;35.91;100599.31;5069304;28;20624;-67
2021/05/16 05:59:31;;;;;;;6.63;1.20;;;;;;;28.01;35.48;100602.63;5075525;28;20085;-67
2021/05/16 06:02:01;;;;;;;18.45;1.42;;;;;;;28.20;35.46;100610.59;5067702;28;20135;-66
2021/05/16 06:04:28;;;;;;;3.17;0.77;;;;;;;28.44;34.98;100615.41;5075280;28;20075;-67
2021/05/16 06:06:55;;;;;;;4.70;0.70;;;;;;;28.45;34.12;100619.00;5076672;28;20043;-66
2021/05/16 06:09:22;;;;;;;5.57;0.80;;;;;;;28.30;34.10;100612.63;5074217;28;20048;-66
2021/05/16 06:11:50;;;;;;;7.90;1.15;;;;;;;28.00;33.75;100612.59;5066030;28;20071;-65
2021/05/16 06:14:18;;;;;;;2.65;0.70;;;;;;;28.06;34.21;100611.38;5074217;28;20073;-66
2021/05/16 06:16:45;;;;;;;5.38;1.00;;;;;;;28.12;33.82;100617.31;5077238;28;20069;-66
2021/05/16 06:19:12;;;;;;;6.63;0.93;;;;;;;28.26;34.25;100621.06;5077477;28;20452;-66
2021/05/16 06:21:39;;;;;;;2.10;0.52;;;;;;;28.39;34.13;100620.25;5089230;28;20036;-66
2021/05/16 06:24:09;;;;;;;2.47;0.65;;;;;;;28.41;33.49;100628.31;5088111;28;21673;-66
2021/05/16 06:26:38;;;;;;;3.20;0.65;;;;;;;28.13;33.79;100624.50;5089009;28;20047;-66
2021/05/16 06:29:05;;;;;;;7.68;0.80;;;;;;;28.06;34.18;100624.94;5087018;28;20119;-67
2021/05/16 06:31:34;;;;;;;4.75;0.60;;;;;;;28.20;34.51;100626.88;5089783;28;20043;-67
2021/05/16 06:34:03;;;;;;;4.03;0.70;;;;;;;28.40;34.10;100624.72;5080253;28;23182;-66
2021/05/16 06:36:30;;;;;;;5.60;1.15;;;;;;;28.49;34.02;100624.13;5088821;28;20052;-66
2021/05/16 06:38:57;;;;;;;2.78;0.80;;;;;;;28.45;34.24;100630.75;5082433;28;20089;-66
2021/05/16 06:41:24;;;;;;;4.22;0.75;;;;;;;28.43;34.67;100624.50;5076950;28;20054;-66
2021/05/16 06:43:51;;;;;;;4.65;0.77;;;;;;;28.52;34.16;100625.81;5085877;28;20048;-66
2021/05/16 06:46:19;;;;;;;5.88;1.35;;;;;;;28.57;34.07;100630.94;5088469;28;20044;-66
2021/05/16 06:48:47;;;;;;;3.85;1.20;;;;;;;28.63;34.37;100625.13;5080576;28;20043;-66
2021/05/16 06:51:14;;;;;;;6.03;0.80;;;;;;;28.61;34.49;100621.66;5088753;28;20131;-67
2021/05/16 06:53:41;;;;;;;5.45;0.88;;;;;;;28.61;34.35;100616.22;5087208;28;20101;-66
2021/05/16 06:56:11;;;;;;;5.20;0.82;;;;;;;28.65;34.85;100612.34;5086086;28;20048;-66
2021/05/16 06:58:39;;;;;;;6.35;0.98;;;;;;;28.51;35.21;100619.50;5080758;28;20044;-66
2021/05/16 07:01:06;;;;;;;6.68;1.13;;;;;;;28.49;35.37;100625.97;5086882;28;20127;-67
2021/05/16 07:03:35;;;;;;;5.35;1.05;;;;;;;28.64;34.98;100616.91;5088358;28;20057;-67
2021/05/16 07:06:03;;;;;;;3.25;0.63;;;;;;;28.88;35.12;100617.28;5085119;28;20399;-66
2021/05/16 07:08:31;;;;;;;2.88;0.77;;;;;;;28.91;35.32;100612.50;5088730;28;20041;-66
2021/05/16 07:10:58;;;;;;;6.60;1.23;;;;;;;28.87;35.33;100631.81;5085747;28;20173;-67
2021/05/16 07:13:25;;;;;;;5.72;0.77;;;;;;;28.82;34.62;100614.91;5083714;28;20068;-66
2021/05/16 07:15:52;;;;;;;8.93;1.10;;;;;;;28.87;35.51;100616.41;5080167;28;20102;-66
2021/05/16 07:18:19;;;;;;;7.28;1.63;;;;;;;28.98;34.80;100632.03;5088491;28;20096;-66
2021/05/16 07:20:48;;;;;;;6.15;0.98;;;;;;;28.93;34.57;100635.03;5085965;28;20044;-66
2021/05/16 07:23:16;;;;;;;8.18;0.93;;;;;;;29.05;34.86;100630.66;5085495;28;20170;-66
2021/05/16 07:25:43;;;;;;;4.50;0.85;;;;;;;29.33;35.94;100635.22;5082466;28;20046;-66
2021/05/16 07:28:11;;;;;;;5.15;1.05;;;;;;;29.58;35.64;100632.69;5086042;28;20071;-66
2021/05/16 07:30:38;;;;;;;4.05;1.55;;;;;;;29.68;35.54;100622.06;5087607;28;20458;-66
2021/05/16 07:33:05;;;;;;;4.78;1.13;;;;;;;29.70;35.68;100612.84;5086174;28;20040;-67
2021/05/16 07:35:33;;;;;;;3.90;1.00;;;;;;;29.75;35.51;100614.34;5088905;28;20036;-66
2021/05/16 07:38:01;;;;;;;6.55;0.90;;;;;;;29.78;35.68;100614.19;5083999;28;20040;-67
2021/05/16 07:40:29;;;;;;;9.02;1.00;;;;;;;29.81;35.48;100623.00;5081413;28;20036;-67
2021/05/16 07:42:57;;;;;;;8.52;1.25;;;;;;;29.76;35.36;100624.28;5086339;28;20048;-67
2021/05/16 07:45:25;;;;;;;9.07;1.10;;;;;;;29.73;35.37;100629.94;5088171;28;20097;-67
2021/05/16 07:47:52;;;;;;;6.40;0.95;;;;;;;29.89;35.46;100636.97;5085941;28;20139;-66
2021/05/16 07:50:19;;;;;;;5.65;0.88;;;;;;;29.91;35.45;100634.16;5088256;28;20082;-66
2021/05/16 07:52:46;;;;;;;5.22;1.10;;;;;;;30.05;35.00;100626.84;5086369;28;20051;-67
2021/05/16 07:55:14;;;;;;;10.60;1.98;;;;;;;30.16;34.74;100631.56;5073378;28;20043;-66
2021/05/16 07:57:42;;;;;;;5.78;0.85;;;;;;;30.29;34.16;100631.59;5090478;28;20047;-66
2021/05/16 08:00:11;;;;;;;4.40;0.98;;;;;;;30.29;34.00;100631.59;5085900;28;20054;-67
2021/05/16 08:02:38;;;;;;;6.03;0.95;;;;;;;30.32;33.84;100643.19;5087167;28;20396;-67
2021/05/16 08:05:08;;;;;;;4.78;1.23;;;;;;;30.27;33.39;100649.88;5078051;28;20037;-67
2021/05/16 08:07:35;;;;;;;6.28;1.10;;;;;;;30.33;33.32;100644.91;5086710;28;20060;-67
2021/05/16 08:10:02;;;;;;;7.13;1.10;;;;;;;30.33;33.45;100646.75;5084429;28;20552;-67
2021/05/16 08:12:29;;;;;;;7.28;1.13;;;;;;;30.40;33.31;100659.84;5087825;28;20040;-67
2021/05/16 08:14:58;;;;;;;7.82;0.75;;;;;;;30.46;33.11;100648.53;5082807;28;20056;-67
2021/05/16 08:17:24;;;;;;;8.02;1.40;;;;;;;30.43;33.22;100656.94;5078669;28;20136;-67
2021/05/16 08:19:52;;;;;;;7.82;1.70;;;;;;;30.52;32.81;100677.28;5082806;28;20044;-66
2021/05/16 08:22:20;;;;;;;4.35;1.02;;;;;;;30.42;32.59;100681.56;5087856;28;20048;-66
2021/05/16 08:24:47;;;;;;;5.72;0.90;;;;;;;30.42;33.09;100671.53;5083729;28;20503;-66
2021/05/16 08:27:14;;;;;;;5.47;0.80;;;;;;;30.53;32.91;100681.72;5078779;28;20136;-66
2021/05/16 08:29:41;;;;;;;6.03;0.82;;;;;;;30.54;32.92;100682.59;5085682;28;20506;-67
2021/05/16 08:32:10;;;;;;;7.70;1.13;;;;;;;30.66;33.08;100688.06;5085921;28;20093;-67
2021/05/16 08:34:37;;;;;;;4.57;0.85;;;;;;;30.49;33.14;100689.25;5086311;28;20227;-66
2021/05/16 08:37:07;;;;;;;3.20;0.82;;;;;;;30.50;32.47;100684.66;5082404;28;20037;-67
2021/05/16 08:39:34;;;;;;;5.68;0.90;;;;;;;30.51;32.27;100691.88;5081655;28;20043;-67
2021/05/16 08:42:01;;;;;;;7.75;1.33;;;;;;;30.31;33.11;100678.69;5076428;28;20062;-67
2021/05/16 08:44:28;;;;;;;10.43;1.23;;;;;;;30.35;33.33;100677.50;5081919;28;20439;-67
2021/05/16 08:46:55;;;;;;;4.63;0.90;;;;;;;30.43;33.12;100684.19;5083209;28;20067;-67
2021/05/16 08:49:23;;;;;;;3.38;0.88;;;;;;;30.51;32.81;100675.53;5086173;28;20043;-67
2021/05/16 08:51:50;;;;;;;3.70;0.73;;;;;;;30.46;32.74;100689.41;5083560;28;20722;-67
2021/05/16 08:54:18;;;;;;;4.65;0.90;;;;;;;30.41;32.52;100688.84;5069157;28;20105;-67
2021/05/16 08:56:47;;;;;;;6.10;1.48;;;;;;;30.40;32.56;100684.38;5085097;28;20462;-67
2021/05/16 08:59:14;;;;;;;6.28;1.10;;;;;;;30.26;32.91;100676.25;5086495;28;20120;-67
2021/05/16 09:01:48;;;;;;;4.13;0.90;;;;;;;30.45;32.52;100681.34;5085882;28;20469;-66
2021/05/16 09:04:30;;;;;;;5.63;1.10;;;;;;;30.56;32.98;100681.53;5084688;28;20109;-67
2021/05/16 09:06:58;;;;;;;6.57;0.77;;;;;;;30.65;32.05;100697.25;5084398;28;20036;-67
2021/05/16 09:09:33;;;;;;;5.38;0.88;;;;;;;30.61;32.04;100681.19;5085344;28;20089;-67
2021/05/16 09:12:02;;;;;;;5.28;0.70;;;;;;;30.66;32.10;100682.63;5083693;28;20068;-67
2021/05/16 09:14:48;;;;;;;2.67;1.02;;;;;;;30.56;31.60;100691.53;5081242;28;20349;-67
2021/05/16 09:17:26;;;;;;;5.43;0.68;;;;;;;30.60;31.80;100688.50;5066853;28;20036;-66
2021/05/16 09:19:57;;;;;;;2.97;0.63;;;;;;;30.62;31.41;100702.91;5073465;28;20056;-67
2021/05/16 09:22:38;;;;;;;1.77;0.60;;;;;;;30.74;30.82;100688.41;5071681;28;20392;-67
2021/05/16 09:25:12;;;;;;;5.68;1.10;;;;;;;30.47;31.70;100690.28;5062368;28;20124;-66
2021/05/16 09:27:40;;;;;;;6.22;0.95;;;;;;;30.27;32.37;100693.47;5065504;28;20066;-66
2021/05/16 09:30:30;;;;;;;5.82;1.13;;;;;;;30.20;32.53;100693.03;5064315;28;20075;-67
2021/05/16 09:32:59;;;;;;;7.80;1.20;;;;;;;30.32;32.51;100697.66;5057683;28;20040;-67
2021/05/16 09:35:35;;;;;;;6.47;0.70;;;;;;;30.43;32.00;100696.94;5065617;28;20086;-67
2021/05/16 09:38:07;;;;;;;4.35;1.02;;;;;;;30.48;32.17;100700.22;5083904;28;20049;-67
2021/05/16 09:40:38;;;;;;;4.75;1.17;;;;;;;30.81;32.07;100692.47;5078897;28;20050;-67
2021/05/16 09:43:14;;;;;;;7.43;1.23;;;;;;;30.99;31.83;100693.03;5082872;28;20427;-66
2021/05/16 09:45:55;;;;;;;4.97;0.93;;;;;;;31.02;31.68;100706.47;5084157;28;20119;-67
2021/05/16 09:48:32;;;;;;;4.30;1.00;;;;;;;30.74;31.88;100712.94;5078807;28;20123;-66
2021/05/16 09:51:19;;;;;;;5.18;0.80;;;;;;;30.55;32.19;100722.50;5082989;28;20040;-66
2021/05/16 09:53:57;;;;;;;3.60;0.88;;;;;;;30.64;31.79;100709.13;5082173;28;20047;-67
2021/05/16 09:56:26;;;;;;;3.35;0.95;;;;;;;30.40;31.71;100702.56;5079891;28;20160;-67
2021/05/16 09:58:55;;;;;;;3.70;0.80;;;;;;;30.32;32.62;100703.13;5082100;28;20052;-67
2021/05/16 10:01:24;;;;;;;5.25;0.82;;;;;;;30.33;32.42;100699.38;5082753;28;20042;-67
2021/05/16 10:03:51;;;;;;;3.85;0.80;;;;;;;30.37;32.37;100711.84;5082897;28;20423;-67
2021/05/16 10:06:21;;;;;;;4.53;0.70;;;;;;;30.45;32.46;100706.75;5071906;28;20028;-67
2021/05/16 10:08:49;;;;;;;4.10;0.70;;;;;;;30.44;32.01;100710.47;5083077;28;20043;-65
2021/05/16 10:11:18;;;;;;;5.22;0.98;;;;;;;30.22;32.53;100709.25;5062667;28;20060;-65
2021/05/16 10:14:04;;;;;;;4.50;0.88;;;;;;;30.27;32.91;100715.28;5079568;28;20044;-65
2021/05/16 10:16:39;;;;;;;6.20;1.35;;;;;;;30.22;32.82;100709.25;5068633;28;20115;-65
2021/05/16 10:19:08;;;;;;;4.95;0.98;;;;;;;30.22;33.08;100703.81;5074480;28;20055;-65
2021/05/16 10:21:36;;;;;;;7.93;1.25;;;;;;;30.22;32.83;100698.38;5075985;28;20050;-65
2021/05/16 10:24:12;;;;;;;4.95;0.98;;;;;;;30.16;32.53;100698.78;5067731;28;20574;-65
2021/05/16 10:26:45;;;;;;;5.93;0.88;;;;;;;30.10;32.08;100703.66;5069915;28;20040;-64
2021/05/16 10:29:14;;;;;;;3.05;0.70;;;;;;;30.07;32.31;100698.41;5076694;28;20845;-64
2021/05/16 10:31:44;;;;;;;7.53;0.70;;;;;;;29.91;32.51;100696.78;5077175;28;20040;-66
2021/05/16 10:34:39;;;;;;;5.63;0.98;;;;;;;29.92;32.97;100714.91;5074357;28;20514;-64
2021/05/16 10:37:08;;;;;;;6.80;0.82;;;;;;;29.77;33.34;100707.69;5076667;28;20471;-64
2021/05/16 10:39:55;;;;;;;7.53;1.00;;;;;;;29.70;33.48;100715.38;5065344;28;20115;-64
2021/05/16 10:42:31;;;;;;;8.73;1.20;;;;;;;29.75;33.53;100715.06;5080621;28;20132;-64
2021/05/16 10:45:05;;;;;;;5.60;0.70;;;;;;;29.75;32.99;100709.63;5080768;28;20047;-65
2021/05/16 10:48:06;;;;;;;4.40;0.90;;;;;;;29.61;32.44;100711.41;5083491;28;20674;-64
2021/05/16 10:50:51;;;;;;;5.78;1.23;;;;;;;29.75;32.93;100720.53;5084435;28;20288;-64
2021/05/16 10:53:42;;;;;;;4.95;0.90;;;;;;;29.84;32.29;100717.22;5070614;28;20056;-65
2021/05/16 10:56:15;;;;;;;8.65;1.00;;;;;;;30.05;32.74;100721.28;5071745;28;20040;-65
2021/05/16 10:58:51;;;;;;;5.75;0.80;;;;;;;30.44;32.23;100725.94;5072418;28;20044;-66
2021/05/16 11:01:19;;;;;;;5.85;1.20;;;;;;;30.54;31.38;100724.34;5071231;28;20119;-64
2021/05/16 11:03:52;;;;;;;4.20;0.77;;;;;;;30.56;30.98;100722.41;5080543;28;20184;-64
2021/05/16 11:06:21;;;;;;;3.45;0.93;;;;;;;30.57;31.30;100734.19;5074853;28;20032;-64
2021/05/16 11:09:12;;;;;;;4.10;0.80;;;;;;;30.73;31.34;100730.28;5076369;28;20043;-65
2021/05/16 11:11:53;;;;;;;6.40;0.90;;;;;;;30.85;31.57;100718.53;5089685;28;20048;-65
2021/05/16 11:14:23;;;;;;;7.57;2.95;;;;;;;31.12;30.63;100702.13;5068516;28;20028;-64
2021/05/16 11:16:55;;;;;;;7.28;1.30;;;;;;;31.19;30.41;100697.97;5078052;28;20068;-64
2021/05/16 11:19:24;;;;;;;4.93;0.68;;;;;;;31.27;30.04;100692.84;5071572;28;20044;-65
2021/05/16 11:21:53;;;;;;;8.73;0.80;;;;;;;31.24;29.54;100689.47;5085651;28;20644;-65
2021/05/16 11:24:50;;;;;;;2.33;0.75;;;;;;;31.42;29.57;100695.47;5074466;28;20039;-65
2021/05/16 11:27:22;;;;;;;4.25;0.63;;;;;;;31.62;29.44;100693.06;5073724;28;20044;-65
2021/05/16 11:29:58;;;;;;;5.55;1.10;;;;;;;31.63;29.11;100692.09;5082737;28;20469;-65
2021/05/16 11:32:30;;;;;;;4.05;0.88;;;;;;;31.64;29.51;100696.53;5076046;28;20075;-65